sensor_id;sensor_type;location;lat;lon;timestamp;P1;durP1;ratioP1;P2;durP2;ratioP2
8458;SDS011;4266;48.816;9.154;2023-02-04T00:00:29;4.70;;;4.40;;
8458;SDS011;4266;48.816;9.154;2023-02-04T00:02:55;4.67;;;4.37;;
8458;SDS011;4266;48.816;9.154;2023-02-04T00:05:21;4.40;;;4.10;;
8458;SDS011;4266;48.816;9.154;2023-02-04T00:07:46;4.80;;;4.40;;
8458;SDS011;4266;48.816;9.154;2023-02-04T00:10:12;4.37;;;4.07;;
8458;SDS011;4266;48.816;9.154;2023-02-04T00:12:38;4.40;;;4.10;;
8458;SDS011;4266;48.816;9.154;2023-02-04T00:15:04;4.40;;;4.10;;
8458;SDS011;4266;48.816;9.154;2023-02-04T00:17:30;4.17;;;3.87;;
8458;SDS011;4266;48.816;9.154;2023-02-04T00:19:56;3.87;;;3.60;;
8458;SDS011;4266;48.816;9.154;2023-02-04T00:22:21;3.80;;;3.60;;
8458;SDS011;4266;48.816;9.154;2023-02-04T00:24:47;4.07;;;3.77;;
8458;SDS011;4266;48.816;9.154;2023-02-04T00:27:13;4.17;;;3.97;;
8458;SDS011;4266;48.816;9.154;2023-02-04T00:29:39;3.87;;;3.67;;
8458;SDS011;4266;48.816;9.154;2023-02-04T00:32:05;4.03;;;3.73;;
8458;SDS011;4266;48.816;9.154;2023-02-04T00:34:30;4.33;;;4.00;;
8458;SDS011;4266;48.816;9.154;2023-02-04T00:36:56;3.97;;;3.67;;
8458;SDS011;4266;48.816;9.154;2023-02-04T00:39:22;4.33;;;3.83;;
8458;SDS011;4266;48.816;9.154;2023-02-04T00:41:47;3.60;;;3.40;;
8458;SDS011;4266;48.816;9.154;2023-02-04T00:44:13;4.50;;;3.90;;
8458;SDS011;4266;48.816;9.154;2023-02-04T00:46:40;4.20;;;3.80;;
8458;SDS011;4266;48.816;9.154;2023-02-04T00:49:06;3.90;;;3.70;;
8458;SDS011;4266;48.816;9.154;2023-02-04T00:51:32;4.10;;;3.80;;
8458;SDS011;4266;48.816;9.154;2023-02-04T00:53:58;4.30;;;4.00;;
8458;SDS011;4266;48.816;9.154;2023-02-04T00:56:23;4.77;;;3.70;;
8458;SDS011;4266;48.816;9.154;2023-02-04T00:58:49;4.73;;;4.30;;
8458;SDS011;4266;48.816;9.154;2023-02-04T01:01:15;7.23;;;4.47;;
8458;SDS011;4266;48.816;9.154;2023-02-04T01:03:40;5.50;;;5.00;;
8458;SDS011;4266;48.816;9.154;2023-02-04T01:06:06;5.67;;;5.17;;
8458;SDS011;4266;48.816;9.154;2023-02-04T01:08:32;5.90;;;5.40;;
8458;SDS011;4266;48.816;9.154;2023-02-04T01:10:57;5.87;;;5.37;;
8458;SDS011;4266;48.816;9.154;2023-02-04T01:13:23;5.33;;;4.83;;
8458;SDS011;4266;48.816;9.154;2023-02-04T01:15:49;5.60;;;5.10;;
8458;SDS011;4266;48.816;9.154;2023-02-04T01:18:14;5.13;;;4.73;;
8458;SDS011;4266;48.816;9.154;2023-02-04T01:20:40;5.00;;;4.70;;
8458;SDS011;4266;48.816;9.154;2023-02-04T01:23:06;5.50;;;5.10;;
8458;SDS011;4266;48.816;9.154;2023-02-04T01:25:32;5.63;;;5.20;;
8458;SDS011;4266;48.816;9.154;2023-02-04T01:27:57;6.03;;;5.50;;
8458;SDS011;4266;48.816;9.154;2023-02-04T01:30:23;5.70;;;5.20;;
8458;SDS011;4266;48.816;9.154;2023-02-04T01:32:49;6.40;;;5.23;;
8458;SDS011;4266;48.816;9.154;2023-02-04T01:35:14;5.67;;;5.17;;
8458;SDS011;4266;48.816;9.154;2023-02-04T01:37:41;6.27;;;5.77;;
8458;SDS011;4266;48.816;9.154;2023-02-04T01:40:07;6.30;;;5.77;;
8458;SDS011;4266;48.816;9.154;2023-02-04T01:42:33;5.53;;;4.93;;
8458;SDS011;4266;48.816;9.154;2023-02-04T01:44:59;4.80;;;4.37;;
8458;SDS011;4266;48.816;9.154;2023-02-04T01:47:25;5.33;;;3.30;;
8458;SDS011;4266;48.816;9.154;2023-02-04T01:49:51;3.00;;;2.80;;
8458;SDS011;4266;48.816;9.154;2023-02-04T01:52:17;3.80;;;3.40;;
8458;SDS011;4266;48.816;9.154;2023-02-04T01:54:42;3.37;;;3.07;;
8458;SDS011;4266;48.816;9.154;2023-02-04T01:57:08;2.77;;;2.57;;
8458;SDS011;4266;48.816;9.154;2023-02-04T01:59:34;5.03;;;3.00;;
8458;SDS011;4266;48.816;9.154;2023-02-04T02:01:59;3.57;;;3.03;;
8458;SDS011;4266;48.816;9.154;2023-02-04T02:04:29;3.30;;;3.00;;
8458;SDS011;4266;48.816;9.154;2023-02-04T02:06:54;4.27;;;2.87;;
8458;SDS011;4266;48.816;9.154;2023-02-04T02:09:20;3.17;;;2.97;;
8458;SDS011;4266;48.816;9.154;2023-02-04T02:11:46;7.40;;;3.03;;
8458;SDS011;4266;48.816;9.154;2023-02-04T02:14:12;3.97;;;2.73;;
8458;SDS011;4266;48.816;9.154;2023-02-04T02:16:38;5.03;;;3.30;;
8458;SDS011;4266;48.816;9.154;2023-02-04T02:19:04;3.97;;;2.57;;
8458;SDS011;4266;48.816;9.154;2023-02-04T02:21:32;3.73;;;2.80;;
8458;SDS011;4266;48.816;9.154;2023-02-04T02:23:56;4.87;;;2.80;;
8458;SDS011;4266;48.816;9.154;2023-02-04T02:26:22;4.53;;;2.60;;
8458;SDS011;4266;48.816;9.154;2023-02-04T02:28:48;8.60;;;3.67;;
8458;SDS011;4266;48.816;9.154;2023-02-04T02:31:15;6.90;;;3.00;;
8458;SDS011;4266;48.816;9.154;2023-02-04T02:33:40;10.67;;;3.07;;
8458;SDS011;4266;48.816;9.154;2023-02-04T02:36:06;7.03;;;3.20;;
8458;SDS011;4266;48.816;9.154;2023-02-04T02:38:32;8.47;;;2.90;;
8458;SDS011;4266;48.816;9.154;2023-02-04T02:40:58;7.00;;;3.33;;
8458;SDS011;4266;48.816;9.154;2023-02-04T02:43:25;7.40;;;3.30;;
8458;SDS011;4266;48.816;9.154;2023-02-04T02:45:51;8.03;;;3.30;;
8458;SDS011;4266;48.816;9.154;2023-02-04T02:48:17;7.80;;;3.03;;
8458;SDS011;4266;48.816;9.154;2023-02-04T02:50:42;8.20;;;3.17;;
8458;SDS011;4266;48.816;9.154;2023-02-04T02:53:09;6.27;;;3.20;;
8458;SDS011;4266;48.816;9.154;2023-02-04T02:55:34;6.33;;;3.10;;
8458;SDS011;4266;48.816;9.154;2023-02-04T02:58:00;5.97;;;3.20;;
8458;SDS011;4266;48.816;9.154;2023-02-04T03:00:27;5.30;;;3.10;;
8458;SDS011;4266;48.816;9.154;2023-02-04T03:02:58;6.27;;;3.40;;
8458;SDS011;4266;48.816;9.154;2023-02-04T03:05:31;6.40;;;3.43;;
8458;SDS011;4266;48.816;9.154;2023-02-04T03:07:56;5.63;;;3.70;;
8458;SDS011;4266;48.816;9.154;2023-02-04T03:10:22;9.47;;;2.90;;
8458;SDS011;4266;48.816;9.154;2023-02-04T03:12:48;5.90;;;3.13;;
8458;SDS011;4266;48.816;9.154;2023-02-04T03:15:14;7.13;;;3.37;;
8458;SDS011;4266;48.816;9.154;2023-02-04T03:17:40;5.77;;;3.00;;
8458;SDS011;4266;48.816;9.154;2023-02-04T03:20:06;8.03;;;3.50;;
8458;SDS011;4266;48.816;9.154;2023-02-04T03:22:32;5.93;;;3.47;;
8458;SDS011;4266;48.816;9.154;2023-02-04T03:24:58;4.40;;;3.23;;
8458;SDS011;4266;48.816;9.154;2023-02-04T03:27:23;8.57;;;3.47;;
8458;SDS011;4266;48.816;9.154;2023-02-04T03:29:50;5.93;;;3.17;;
8458;SDS011;4266;48.816;9.154;2023-02-04T03:32:15;8.40;;;3.60;;
8458;SDS011;4266;48.816;9.154;2023-02-04T03:34:41;6.87;;;3.77;;
8458;SDS011;4266;48.816;9.154;2023-02-04T03:37:07;8.53;;;3.40;;
8458;SDS011;4266;48.816;9.154;2023-02-04T03:39:32;9.40;;;3.90;;
8458;SDS011;4266;48.816;9.154;2023-02-04T03:41:58;5.10;;;3.20;;
8458;SDS011;4266;48.816;9.154;2023-02-04T03:44:24;5.53;;;3.43;;
8458;SDS011;4266;48.816;9.154;2023-02-04T03:46:49;6.63;;;3.20;;
8458;SDS011;4266;48.816;9.154;2023-02-04T03:49:15;3.87;;;3.33;;
8458;SDS011;4266;48.816;9.154;2023-02-04T03:51:41;6.67;;;3.17;;
8458;SDS011;4266;48.816;9.154;2023-02-04T03:54:06;6.07;;;3.80;;
8458;SDS011;4266;48.816;9.154;2023-02-04T03:56:32;5.70;;;3.83;;
8458;SDS011;4266;48.816;9.154;2023-02-04T03:58:58;8.80;;;3.90;;
8458;SDS011;4266;48.816;9.154;2023-02-04T04:01:24;6.43;;;3.70;;
8458;SDS011;4266;48.816;9.154;2023-02-04T04:03:50;9.80;;;3.73;;
8458;SDS011;4266;48.816;9.154;2023-02-04T04:06:15;8.73;;;4.10;;
8458;SDS011;4266;48.816;9.154;2023-02-04T04:08:41;8.53;;;3.57;;
8458;SDS011;4266;48.816;9.154;2023-02-04T04:11:07;6.30;;;3.73;;
8458;SDS011;4266;48.816;9.154;2023-02-04T04:13:33;7.20;;;3.97;;
8458;SDS011;4266;48.816;9.154;2023-02-04T04:15:59;6.10;;;3.00;;
8458;SDS011;4266;48.816;9.154;2023-02-04T04:18:25;5.03;;;3.37;;
8458;SDS011;4266;48.816;9.154;2023-02-04T04:20:50;5.13;;;3.27;;
8458;SDS011;4266;48.816;9.154;2023-02-04T04:23:16;5.33;;;3.60;;
8458;SDS011;4266;48.816;9.154;2023-02-04T04:25:42;6.50;;;3.57;;
8458;SDS011;4266;48.816;9.154;2023-02-04T04:28:08;7.20;;;3.80;;
8458;SDS011;4266;48.816;9.154;2023-02-04T04:30:33;5.97;;;3.70;;
8458;SDS011;4266;48.816;9.154;2023-02-04T04:32:59;6.23;;;3.40;;
8458;SDS011;4266;48.816;9.154;2023-02-04T04:35:25;7.60;;;3.67;;
8458;SDS011;4266;48.816;9.154;2023-02-04T04:37:50;6.30;;;3.43;;
8458;SDS011;4266;48.816;9.154;2023-02-04T04:40:16;6.23;;;3.93;;
8458;SDS011;4266;48.816;9.154;2023-02-04T04:42:42;4.83;;;3.20;;
8458;SDS011;4266;48.816;9.154;2023-02-04T04:45:08;5.40;;;3.70;;
8458;SDS011;4266;48.816;9.154;2023-02-04T04:47:34;5.40;;;3.20;;
8458;SDS011;4266;48.816;9.154;2023-02-04T04:50:00;4.40;;;3.23;;
8458;SDS011;4266;48.816;9.154;2023-02-04T04:52:25;7.57;;;3.60;;
8458;SDS011;4266;48.816;9.154;2023-02-04T04:54:51;5.80;;;3.93;;
8458;SDS011;4266;48.816;9.154;2023-02-04T04:57:18;5.33;;;3.63;;
8458;SDS011;4266;48.816;9.154;2023-02-04T04:59:43;3.83;;;3.30;;
8458;SDS011;4266;48.816;9.154;2023-02-04T05:02:09;5.80;;;3.50;;
8458;SDS011;4266;48.816;9.154;2023-02-04T05:04:35;7.17;;;3.60;;
8458;SDS011;4266;48.816;9.154;2023-02-04T05:07:00;5.93;;;3.87;;
8458;SDS011;4266;48.816;9.154;2023-02-04T05:09:27;4.57;;;3.70;;
8458;SDS011;4266;48.816;9.154;2023-02-04T05:11:52;5.60;;;3.73;;
8458;SDS011;4266;48.816;9.154;2023-02-04T05:14:18;8.23;;;4.03;;
8458;SDS011;4266;48.816;9.154;2023-02-04T05:16:44;7.23;;;4.20;;
8458;SDS011;4266;48.816;9.154;2023-02-04T05:19:09;6.47;;;4.20;;
8458;SDS011;4266;48.816;9.154;2023-02-04T05:21:35;5.50;;;4.07;;
8458;SDS011;4266;48.816;9.154;2023-02-04T05:24:01;8.53;;;4.27;;
8458;SDS011;4266;48.816;9.154;2023-02-04T05:26:26;6.70;;;4.33;;
8458;SDS011;4266;48.816;9.154;2023-02-04T05:28:53;6.57;;;4.37;;
8458;SDS011;4266;48.816;9.154;2023-02-04T05:31:19;6.53;;;4.33;;
8458;SDS011;4266;48.816;9.154;2023-02-04T05:33:44;5.13;;;4.03;;
8458;SDS011;4266;48.816;9.154;2023-02-04T05:36:10;7.60;;;4.70;;
8458;SDS011;4266;48.816;9.154;2023-02-04T05:38:36;9.87;;;4.47;;
8458;SDS011;4266;48.816;9.154;2023-02-04T05:41:02;14.30;;;5.07;;
8458;SDS011;4266;48.816;9.154;2023-02-04T05:43:28;9.10;;;5.00;;
8458;SDS011;4266;48.816;9.154;2023-02-04T05:45:54;9.03;;;4.60;;
8458;SDS011;4266;48.816;9.154;2023-02-04T05:48:20;13.77;;;6.03;;
8458;SDS011;4266;48.816;9.154;2023-02-04T05:50:46;9.37;;;5.60;;
8458;SDS011;4266;48.816;9.154;2023-02-04T05:53:12;13.27;;;5.37;;
8458;SDS011;4266;48.816;9.154;2023-02-04T05:55:38;10.73;;;4.90;;
8458;SDS011;4266;48.816;9.154;2023-02-04T05:58:03;10.80;;;5.73;;
8458;SDS011;4266;48.816;9.154;2023-02-04T06:00:29;9.47;;;5.40;;
8458;SDS011;4266;48.816;9.154;2023-02-04T06:02:55;11.47;;;5.40;;
8458;SDS011;4266;48.816;9.154;2023-02-04T06:05:20;8.03;;;5.40;;
8458;SDS011;4266;48.816;9.154;2023-02-04T06:07:46;12.67;;;6.27;;
8458;SDS011;4266;48.816;9.154;2023-02-04T06:10:13;18.33;;;5.83;;
8458;SDS011;4266;48.816;9.154;2023-02-04T06:12:40;9.10;;;5.33;;
8458;SDS011;4266;48.816;9.154;2023-02-04T06:15:06;11.60;;;5.73;;
8458;SDS011;4266;48.816;9.154;2023-02-04T06:17:32;14.03;;;5.73;;
8458;SDS011;4266;48.816;9.154;2023-02-04T06:19:58;13.50;;;5.40;;
8458;SDS011;4266;48.816;9.154;2023-02-04T06:22:23;14.17;;;5.73;;
8458;SDS011;4266;48.816;9.154;2023-02-04T06:24:50;15.43;;;5.87;;
8458;SDS011;4266;48.816;9.154;2023-02-04T06:27:16;13.50;;;6.17;;
8458;SDS011;4266;48.816;9.154;2023-02-04T06:29:42;9.63;;;5.33;;
8458;SDS011;4266;48.816;9.154;2023-02-04T06:32:07;20.53;;;6.17;;
8458;SDS011;4266;48.816;9.154;2023-02-04T06:34:33;15.23;;;6.17;;
8458;SDS011;4266;48.816;9.154;2023-02-04T06:36:59;15.43;;;5.67;;
8458;SDS011;4266;48.816;9.154;2023-02-04T06:39:25;14.07;;;6.17;;
8458;SDS011;4266;48.816;9.154;2023-02-04T06:41:50;13.63;;;5.63;;
8458;SDS011;4266;48.816;9.154;2023-02-04T06:44:16;15.57;;;6.33;;
8458;SDS011;4266;48.816;9.154;2023-02-04T06:46:42;19.73;;;6.20;;
8458;SDS011;4266;48.816;9.154;2023-02-04T06:49:08;16.47;;;5.73;;
8458;SDS011;4266;48.816;9.154;2023-02-04T06:51:33;19.13;;;5.90;;
8458;SDS011;4266;48.816;9.154;2023-02-04T06:54:00;12.43;;;5.50;;
8458;SDS011;4266;48.816;9.154;2023-02-04T06:56:26;13.20;;;5.80;;
8458;SDS011;4266;48.816;9.154;2023-02-04T06:58:52;10.13;;;5.90;;
8458;SDS011;4266;48.816;9.154;2023-02-04T07:01:17;13.07;;;6.33;;
8458;SDS011;4266;48.816;9.154;2023-02-04T07:03:43;15.53;;;6.33;;
8458;SDS011;4266;48.816;9.154;2023-02-04T07:06:09;13.53;;;6.00;;
8458;SDS011;4266;48.816;9.154;2023-02-04T07:08:34;13.27;;;6.57;;
8458;SDS011;4266;48.816;9.154;2023-02-04T07:11:04;16.83;;;6.73;;
8458;SDS011;4266;48.816;9.154;2023-02-04T07:13:30;18.57;;;6.67;;
8458;SDS011;4266;48.816;9.154;2023-02-04T07:15:56;15.43;;;6.47;;
8458;SDS011;4266;48.816;9.154;2023-02-04T07:18:22;17.17;;;6.60;;
8458;SDS011;4266;48.816;9.154;2023-02-04T07:20:48;17.80;;;6.10;;
8458;SDS011;4266;48.816;9.154;2023-02-04T07:23:14;11.20;;;5.57;;
8458;SDS011;4266;48.816;9.154;2023-02-04T07:25:40;15.97;;;6.07;;
8458;SDS011;4266;48.816;9.154;2023-02-04T07:28:06;14.23;;;6.23;;
8458;SDS011;4266;48.816;9.154;2023-02-04T07:30:31;10.63;;;5.70;;
8458;SDS011;4266;48.816;9.154;2023-02-04T07:32:58;16.07;;;6.03;;
8458;SDS011;4266;48.816;9.154;2023-02-04T07:35:23;21.60;;;6.13;;
8458;SDS011;4266;48.816;9.154;2023-02-04T07:37:49;13.33;;;5.97;;
8458;SDS011;4266;48.816;9.154;2023-02-04T07:40:16;12.87;;;6.27;;
8458;SDS011;4266;48.816;9.154;2023-02-04T07:42:42;12.07;;;5.77;;
8458;SDS011;4266;48.816;9.154;2023-02-04T07:45:09;11.47;;;5.87;;
8458;SDS011;4266;48.816;9.154;2023-02-04T07:47:35;13.47;;;5.63;;
8458;SDS011;4266;48.816;9.154;2023-02-04T07:50:01;13.87;;;5.57;;
8458;SDS011;4266;48.816;9.154;2023-02-04T07:52:26;13.90;;;5.63;;
8458;SDS011;4266;48.816;9.154;2023-02-04T07:54:52;16.60;;;5.60;;
8458;SDS011;4266;48.816;9.154;2023-02-04T07:57:18;17.03;;;6.07;;
8458;SDS011;4266;48.816;9.154;2023-02-04T07:59:44;18.27;;;6.10;;
8458;SDS011;4266;48.816;9.154;2023-02-04T08:02:10;19.20;;;5.77;;
8458;SDS011;4266;48.816;9.154;2023-02-04T08:04:36;11.80;;;5.40;;
8458;SDS011;4266;48.816;9.154;2023-02-04T08:07:02;12.33;;;5.57;;
8458;SDS011;4266;48.816;9.154;2023-02-04T08:09:28;13.90;;;6.27;;
8458;SDS011;4266;48.816;9.154;2023-02-04T08:11:53;13.73;;;5.70;;
8458;SDS011;4266;48.816;9.154;2023-02-04T08:14:19;16.83;;;6.47;;
8458;SDS011;4266;48.816;9.154;2023-02-04T08:16:45;15.47;;;6.30;;
8458;SDS011;4266;48.816;9.154;2023-02-04T08:19:12;13.57;;;5.50;;
8458;SDS011;4266;48.816;9.154;2023-02-04T08:21:37;12.93;;;6.50;;
8458;SDS011;4266;48.816;9.154;2023-02-04T08:24:04;11.53;;;6.10;;
8458;SDS011;4266;48.816;9.154;2023-02-04T08:26:55;11.47;;;6.47;;
8458;SDS011;4266;48.816;9.154;2023-02-04T08:29:21;15.13;;;6.07;;
8458;SDS011;4266;48.816;9.154;2023-02-04T08:31:47;14.63;;;6.50;;
8458;SDS011;4266;48.816;9.154;2023-02-04T08:34:13;14.87;;;6.97;;
8458;SDS011;4266;48.816;9.154;2023-02-04T08:36:38;13.10;;;5.63;;
8458;SDS011;4266;48.816;9.154;2023-02-04T08:39:04;12.70;;;6.47;;
8458;SDS011;4266;48.816;9.154;2023-02-04T08:41:30;12.90;;;6.53;;
8458;SDS011;4266;48.816;9.154;2023-02-04T08:43:56;14.70;;;6.40;;
8458;SDS011;4266;48.816;9.154;2023-02-04T08:46:21;16.23;;;6.53;;
8458;SDS011;4266;48.816;9.154;2023-02-04T08:48:47;12.13;;;6.30;;
8458;SDS011;4266;48.816;9.154;2023-02-04T08:51:13;12.10;;;6.30;;
8458;SDS011;4266;48.816;9.154;2023-02-04T08:53:39;13.17;;;6.27;;
8458;SDS011;4266;48.816;9.154;2023-02-04T08:56:06;12.07;;;6.30;;
8458;SDS011;4266;48.816;9.154;2023-02-04T08:58:31;12.57;;;6.40;;
8458;SDS011;4266;48.816;9.154;2023-02-04T09:00:57;11.00;;;5.47;;
8458;SDS011;4266;48.816;9.154;2023-02-04T09:03:23;14.70;;;6.10;;
8458;SDS011;4266;48.816;9.154;2023-02-04T09:05:49;11.90;;;5.97;;
8458;SDS011;4266;48.816;9.154;2023-02-04T09:08:14;10.50;;;5.63;;
8458;SDS011;4266;48.816;9.154;2023-02-04T09:10:40;13.37;;;5.43;;
8458;SDS011;4266;48.816;9.154;2023-02-04T09:13:06;12.00;;;6.33;;
8458;SDS011;4266;48.816;9.154;2023-02-04T09:15:31;7.90;;;5.33;;
8458;SDS011;4266;48.816;9.154;2023-02-04T09:17:58;10.43;;;5.87;;
8458;SDS011;4266;48.816;9.154;2023-02-04T09:20:24;12.20;;;5.87;;
8458;SDS011;4266;48.816;9.154;2023-02-04T09:22:49;12.00;;;5.50;;
8458;SDS011;4266;48.816;9.154;2023-02-04T09:25:15;8.35;;;5.03;;
8458;SDS011;4266;48.816;9.154;2023-02-04T09:27:41;11.60;;;4.75;;
8458;SDS011;4266;48.816;9.154;2023-02-04T09:30:08;12.23;;;4.85;;
8458;SDS011;4266;48.816;9.154;2023-02-04T09:32:34;9.27;;;4.37;;
8458;SDS011;4266;48.816;9.154;2023-02-04T09:35:01;9.60;;;4.18;;
8458;SDS011;4266;48.816;9.154;2023-02-04T09:37:27;9.48;;;4.90;;
8458;SDS011;4266;48.816;9.154;2023-02-04T09:39:52;9.98;;;4.45;;
8458;SDS011;4266;48.816;9.154;2023-02-04T09:42:18;7.28;;;3.85;;
8458;SDS011;4266;48.816;9.154;2023-02-04T09:44:44;10.38;;;4.12;;
8458;SDS011;4266;48.816;9.154;2023-02-04T09:47:10;11.52;;;4.32;;
8458;SDS011;4266;48.816;9.154;2023-02-04T09:49:36;12.37;;;4.55;;
8458;SDS011;4266;48.816;9.154;2023-02-04T09:52:02;12.25;;;4.28;;
8458;SDS011;4266;48.816;9.154;2023-02-04T09:54:29;9.18;;;4.22;;
8458;SDS011;4266;48.816;9.154;2023-02-04T09:56:55;12.23;;;4.22;;
8458;SDS011;4266;48.816;9.154;2023-02-04T09:59:22;11.05;;;4.40;;
8458;SDS011;4266;48.816;9.154;2023-02-04T10:01:53;16.90;;;4.30;;
8458;SDS011;4266;48.816;9.154;2023-02-04T10:04:17;10.02;;;4.25;;
8458;SDS011;4266;48.816;9.154;2023-02-04T10:06:43;11.63;;;4.23;;
8458;SDS011;4266;48.816;9.154;2023-02-04T10:09:10;10.87;;;3.60;;
8458;SDS011;4266;48.816;9.154;2023-02-04T10:11:36;10.70;;;3.50;;
8458;SDS011;4266;48.816;9.154;2023-02-04T10:14:02;15.70;;;4.20;;
8458;SDS011;4266;48.816;9.154;2023-02-04T10:16:29;8.17;;;3.80;;
8458;SDS011;4266;48.816;9.154;2023-02-04T10:18:56;11.07;;;3.80;;
8458;SDS011;4266;48.816;9.154;2023-02-04T10:21:22;13.37;;;3.47;;
8458;SDS011;4266;48.816;9.154;2023-02-04T10:23:48;14.97;;;4.20;;
8458;SDS011;4266;48.816;9.154;2023-02-04T10:26:14;13.83;;;4.13;;
8458;SDS011;4266;48.816;9.154;2023-02-04T10:28:40;13.93;;;3.67;;
8458;SDS011;4266;48.816;9.154;2023-02-04T10:31:06;12.47;;;4.33;;
8458;SDS011;4266;48.816;9.154;2023-02-04T10:33:32;15.13;;;4.73;;
8458;SDS011;4266;48.816;9.154;2023-02-04T10:35:58;14.40;;;4.40;;
8458;SDS011;4266;48.816;9.154;2023-02-04T10:38:25;11.47;;;4.30;;
8458;SDS011;4266;48.816;9.154;2023-02-04T10:43:30;13.17;;;3.97;;
8458;SDS011;4266;48.816;9.154;2023-02-04T10:45:56;11.13;;;4.87;;
8458;SDS011;4266;48.816;9.154;2023-02-04T10:48:21;8.70;;;4.30;;
8458;SDS011;4266;48.816;9.154;2023-02-04T10:50:46;12.17;;;4.33;;
8458;SDS011;4266;48.816;9.154;2023-02-04T10:53:14;12.37;;;4.32;;
8458;SDS011;4266;48.816;9.154;2023-02-04T10:55:46;7.45;;;3.85;;
8458;SDS011;4266;48.816;9.154;2023-02-04T10:58:12;9.30;;;3.78;;
8458;SDS011;4266;48.816;9.154;2023-02-04T11:00:37;9.75;;;3.90;;
8458;SDS011;4266;48.816;9.154;2023-02-04T11:03:05;9.82;;;3.75;;
8458;SDS011;4266;48.816;9.154;2023-02-04T11:05:30;10.57;;;4.50;;
8458;SDS011;4266;48.816;9.154;2023-02-04T11:07:55;8.45;;;3.85;;
8458;SDS011;4266;48.816;9.154;2023-02-04T11:10:22;7.55;;;3.60;;
8458;SDS011;4266;48.816;9.154;2023-02-04T11:12:58;13.23;;;4.33;;
8458;SDS011;4266;48.816;9.154;2023-02-04T11:15:35;13.83;;;4.03;;
8458;SDS011;4266;48.816;9.154;2023-02-04T11:18:28;11.67;;;4.17;;
8458;SDS011;4266;48.816;9.154;2023-02-04T11:20:54;14.20;;;4.00;;
8458;SDS011;4266;48.816;9.154;2023-02-04T11:23:29;11.30;;;3.80;;
8458;SDS011;4266;48.816;9.154;2023-02-04T11:26:02;10.90;;;4.10;;
8458;SDS011;4266;48.816;9.154;2023-02-04T11:28:37;12.17;;;4.17;;
8458;SDS011;4266;48.816;9.154;2023-02-04T11:30:57;10.67;;;4.23;;
8458;SDS011;4266;48.816;9.154;2023-02-04T11:33:24;16.93;;;4.97;;
8458;SDS011;4266;48.816;9.154;2023-02-04T11:35:59;11.33;;;4.27;;
8458;SDS011;4266;48.816;9.154;2023-02-04T11:38:24;11.17;;;3.90;;
8458;SDS011;4266;48.816;9.154;2023-02-04T11:40:54;12.57;;;4.10;;
8458;SDS011;4266;48.816;9.154;2023-02-04T11:43:15;11.87;;;4.10;;
8458;SDS011;4266;48.816;9.154;2023-02-04T11:45:40;10.43;;;4.00;;
8458;SDS011;4266;48.816;9.154;2023-02-04T11:48:12;13.57;;;3.87;;
8458;SDS011;4266;48.816;9.154;2023-02-04T11:50:37;11.17;;;4.30;;
8458;SDS011;4266;48.816;9.154;2023-02-04T11:53:03;8.97;;;4.00;;
8458;SDS011;4266;48.816;9.154;2023-02-04T11:55:30;12.40;;;4.20;;
8458;SDS011;4266;48.816;9.154;2023-02-04T11:57:55;10.23;;;4.40;;
8458;SDS011;4266;48.816;9.154;2023-02-04T12:00:23;11.30;;;4.07;;
8458;SDS011;4266;48.816;9.154;2023-02-04T12:02:49;11.67;;;4.13;;
8458;SDS011;4266;48.816;9.154;2023-02-04T12:05:14;8.37;;;4.30;;
8458;SDS011;4266;48.816;9.154;2023-02-04T12:07:40;8.15;;;3.95;;
8458;SDS011;4266;48.816;9.154;2023-02-04T12:12:54;11.38;;;4.43;;
8458;SDS011;4266;48.816;9.154;2023-02-04T12:15:21;8.40;;;3.58;;
8458;SDS011;4266;48.816;9.154;2023-02-04T12:17:59;11.43;;;4.05;;
8458;SDS011;4266;48.816;9.154;2023-02-04T12:20:12;13.45;;;4.72;;
8458;SDS011;4266;48.816;9.154;2023-02-04T12:22:37;11.45;;;3.78;;
8458;SDS011;4266;48.816;9.154;2023-02-04T12:25:02;10.23;;;3.62;;
8458;SDS011;4266;48.816;9.154;2023-02-04T12:27:29;10.38;;;4.12;;
8458;SDS011;4266;48.816;9.154;2023-02-04T12:29:55;8.47;;;3.50;;
8458;SDS011;4266;48.816;9.154;2023-02-04T12:32:21;8.63;;;3.50;;
8458;SDS011;4266;48.816;9.154;2023-02-04T12:34:47;9.13;;;3.30;;
8458;SDS011;4266;48.816;9.154;2023-02-04T12:37:13;6.93;;;3.17;;
8458;SDS011;4266;48.816;9.154;2023-02-04T12:39:40;10.80;;;3.47;;
8458;SDS011;4266;48.816;9.154;2023-02-04T12:42:05;6.83;;;3.07;;
8458;SDS011;4266;48.816;9.154;2023-02-04T12:44:31;7.87;;;3.47;;
8458;SDS011;4266;48.816;9.154;2023-02-04T12:46:57;9.50;;;3.50;;
8458;SDS011;4266;48.816;9.154;2023-02-04T12:49:23;12.37;;;4.30;;
8458;SDS011;4266;48.816;9.154;2023-02-04T12:51:50;9.33;;;3.87;;
8458;SDS011;4266;48.816;9.154;2023-02-04T12:54:14;11.73;;;3.83;;
8458;SDS011;4266;48.816;9.154;2023-02-04T12:56:41;12.07;;;3.77;;
8458;SDS011;4266;48.816;9.154;2023-02-04T12:59:08;12.50;;;3.50;;
8458;SDS011;4266;48.816;9.154;2023-02-04T13:01:33;9.37;;;3.70;;
8458;SDS011;4266;48.816;9.154;2023-02-04T13:03:59;11.50;;;4.87;;
8458;SDS011;4266;48.816;9.154;2023-02-04T13:06:25;11.27;;;3.97;;
8458;SDS011;4266;48.816;9.154;2023-02-04T13:08:50;8.73;;;4.30;;
8458;SDS011;4266;48.816;9.154;2023-02-04T13:11:17;8.60;;;3.70;;
8458;SDS011;4266;48.816;9.154;2023-02-04T13:13:43;12.00;;;4.37;;
8458;SDS011;4266;48.816;9.154;2023-02-04T13:16:08;11.73;;;4.43;;
8458;SDS011;4266;48.816;9.154;2023-02-04T13:18:34;13.03;;;5.00;;
8458;SDS011;4266;48.816;9.154;2023-02-04T13:21:00;11.33;;;4.43;;
8458;SDS011;4266;48.816;9.154;2023-02-04T13:23:27;13.27;;;5.40;;
8458;SDS011;4266;48.816;9.154;2023-02-04T13:25:53;13.50;;;4.67;;
8458;SDS011;4266;48.816;9.154;2023-02-04T13:28:19;13.07;;;5.60;;
8458;SDS011;4266;48.816;9.154;2023-02-04T13:30:46;13.67;;;4.80;;
8458;SDS011;4266;48.816;9.154;2023-02-04T13:33:12;10.37;;;4.20;;
8458;SDS011;4266;48.816;9.154;2023-02-04T13:35:38;11.97;;;4.13;;
8458;SDS011;4266;48.816;9.154;2023-02-04T13:38:04;13.90;;;4.40;;
8458;SDS011;4266;48.816;9.154;2023-02-04T13:40:30;11.10;;;4.13;;
8458;SDS011;4266;48.816;9.154;2023-02-04T13:42:57;10.57;;;4.40;;
8458;SDS011;4266;48.816;9.154;2023-02-04T13:45:23;8.73;;;4.17;;
8458;SDS011;4266;48.816;9.154;2023-02-04T13:47:49;13.38;;;4.10;;
8458;SDS011;4266;48.816;9.154;2023-02-04T13:50:15;10.83;;;4.43;;
8458;SDS011;4266;48.816;9.154;2023-02-04T13:52:40;9.77;;;4.63;;
8458;SDS011;4266;48.816;9.154;2023-02-04T13:55:06;12.97;;;4.50;;
8458;SDS011;4266;48.816;9.154;2023-02-04T13:57:32;8.33;;;4.17;;
8458;SDS011;4266;48.816;9.154;2023-02-04T13:59:59;9.50;;;3.70;;
8458;SDS011;4266;48.816;9.154;2023-02-04T14:02:24;11.73;;;3.80;;
8458;SDS011;4266;48.816;9.154;2023-02-04T14:04:50;9.27;;;4.00;;
8458;SDS011;4266;48.816;9.154;2023-02-04T14:07:16;11.40;;;4.03;;
8458;SDS011;4266;48.816;9.154;2023-02-04T14:09:42;9.97;;;4.13;;
8458;SDS011;4266;48.816;9.154;2023-02-04T14:12:09;12.90;;;4.80;;
8458;SDS011;4266;48.816;9.154;2023-02-04T14:14:34;11.63;;;4.80;;
8458;SDS011;4266;48.816;9.154;2023-02-04T14:17:01;9.53;;;3.90;;
8458;SDS011;4266;48.816;9.154;2023-02-04T14:19:26;10.10;;;4.33;;
8458;SDS011;4266;48.816;9.154;2023-02-04T14:21:52;7.60;;;4.40;;
8458;SDS011;4266;48.816;9.154;2023-02-04T14:24:18;10.67;;;3.90;;
8458;SDS011;4266;48.816;9.154;2023-02-04T14:26:44;9.97;;;4.40;;
8458;SDS011;4266;48.816;9.154;2023-02-04T14:29:09;12.30;;;4.10;;
8458;SDS011;4266;48.816;9.154;2023-02-04T14:31:35;11.93;;;4.63;;
8458;SDS011;4266;48.816;9.154;2023-02-04T14:34:01;9.93;;;4.23;;
8458;SDS011;4266;48.816;9.154;2023-02-04T14:36:26;9.70;;;4.20;;
8458;SDS011;4266;48.816;9.154;2023-02-04T14:38:52;10.63;;;3.90;;
8458;SDS011;4266;48.816;9.154;2023-02-04T14:41:18;11.57;;;4.53;;
8458;SDS011;4266;48.816;9.154;2023-02-04T14:43:43;12.87;;;4.40;;
8458;SDS011;4266;48.816;9.154;2023-02-04T14:46:09;12.53;;;4.10;;
8458;SDS011;4266;48.816;9.154;2023-02-04T14:48:35;7.17;;;3.80;;
8458;SDS011;4266;48.816;9.154;2023-02-04T14:51:00;12.13;;;3.87;;
8458;SDS011;4266;48.816;9.154;2023-02-04T14:53:26;8.77;;;3.50;;
8458;SDS011;4266;48.816;9.154;2023-02-04T14:55:52;14.03;;;3.70;;
8458;SDS011;4266;48.816;9.154;2023-02-04T14:58:19;10.20;;;3.70;;
8458;SDS011;4266;48.816;9.154;2023-02-04T15:00:45;10.93;;;3.63;;
8458;SDS011;4266;48.816;9.154;2023-02-04T15:03:10;10.33;;;3.30;;
8458;SDS011;4266;48.816;9.154;2023-02-04T15:05:36;7.77;;;4.00;;